sensor_id;sensor_type;location;lat;lon;timestamp;temperature;humidity
15879;DHT22;61999;51.514;14.614;2022-10-31T00:01:18;7.10;55.60
15879;DHT22;61999;51.514;14.614;2022-10-31T00:03:47;7.10;55.70
15879;DHT22;61999;51.514;14.614;2022-10-31T00:06:15;7.10;55.70
15879;DHT22;61999;51.514;14.614;2022-10-31T00:08:45;7.00;55.80
15879;DHT22;61999;51.514;14.614;2022-10-31T00:11:13;7.00;55.80
15879;DHT22;61999;51.514;14.614;2022-10-31T00:13:41;7.00;56.00
15879;DHT22;61999;51.514;14.614;2022-10-31T00:16:17;7.00;56.00
15879;DHT22;61999;51.514;14.614;2022-10-31T00:18:48;6.90;56.00
15879;DHT22;61999;51.514;14.614;2022-10-31T00:21:17;6.90;56.10
15879;DHT22;61999;51.514;14.614;2022-10-31T00:23:45;6.90;56.20
15879;DHT22;61999;51.514;14.614;2022-10-31T00:26:14;6.90;56.30
15879;DHT22;61999;51.514;14.614;2022-10-31T00:28:42;6.90;56.30
15879;DHT22;61999;51.514;14.614;2022-10-31T00:31:11;6.80;56.40
15879;DHT22;61999;51.514;14.614;2022-10-31T00:33:41;6.80;56.50
15879;DHT22;61999;51.514;14.614;2022-10-31T00:36:13;6.80;56.50
15879;DHT22;61999;51.514;14.614;2022-10-31T00:38:42;6.80;56.60
15879;DHT22;61999;51.514;14.614;2022-10-31T00:41:11;6.80;56.70
15879;DHT22;61999;51.514;14.614;2022-10-31T00:43:41;6.80;56.70
15879;DHT22;61999;51.514;14.614;2022-10-31T00:46:09;6.80;56.80
15879;DHT22;61999;51.514;14.614;2022-10-31T00:48:37;6.70;56.80
15879;DHT22;61999;51.514;14.614;2022-10-31T00:51:06;6.70;56.80
15879;DHT22;61999;51.514;14.614;2022-10-31T00:53:35;6.70;56.90
15879;DHT22;61999;51.514;14.614;2022-10-31T00:56:03;6.60;56.80
15879;DHT22;61999;51.514;14.614;2022-10-31T00:58:32;6.60;57.00
15879;DHT22;61999;51.514;14.614;2022-10-31T01:01:00;6.60;57.00
15879;DHT22;61999;51.514;14.614;2022-10-31T01:03:30;6.60;57.00
15879;DHT22;61999;51.514;14.614;2022-10-31T01:06:01;6.60;57.00
15879;DHT22;61999;51.514;14.614;2022-10-31T01:08:31;6.60;57.10
15879;DHT22;61999;51.514;14.614;2022-10-31T01:11:05;6.60;57.10
15879;DHT22;61999;51.514;14.614;2022-10-31T01:13:35;6.60;57.20
15879;DHT22;61999;51.514;14.614;2022-10-31T01:16:05;6.50;57.20
15879;DHT22;61999;51.514;14.614;2022-10-31T01:18:34;6.50;57.20
15879;DHT22;61999;51.514;14.614;2022-10-31T01:21:04;6.50;57.30
15879;DHT22;61999;51.514;14.614;2022-10-31T01:23:36;6.50;57.40
15879;DHT22;61999;51.514;14.614;2022-10-31T01:26:07;6.50;57.40
15879;DHT22;61999;51.514;14.614;2022-10-31T01:28:38;6.50;57.40
15879;DHT22;61999;51.514;14.614;2022-10-31T01:31:10;6.40;57.40
15879;DHT22;61999;51.514;14.614;2022-10-31T01:33:38;6.40;57.40
15879;DHT22;61999;51.514;14.614;2022-10-31T01:36:15;6.40;57.50
15879;DHT22;61999;51.514;14.614;2022-10-31T01:38:47;6.40;57.70
15879;DHT22;61999;51.514;14.614;2022-10-31T01:41:18;6.40;57.70
15879;DHT22;61999;51.514;14.614;2022-10-31T01:43:51;6.40;57.70
15879;DHT22;61999;51.514;14.614;2022-10-31T01:46:22;6.40;57.70
15879;DHT22;61999;51.514;14.614;2022-10-31T01:48:54;6.30;57.70
15879;DHT22;61999;51.514;14.614;2022-10-31T01:51:28;6.30;58.00
15879;DHT22;61999;51.514;14.614;2022-10-31T01:54:11;6.30;57.90
15879;DHT22;61999;51.514;14.614;2022-10-31T01:56:46;6.20;57.90
15879;DHT22;61999;51.514;14.614;2022-10-31T01:59:19;6.20;58.10
15879;DHT22;61999;51.514;14.614;2022-10-31T02:01:50;6.20;58.10
15879;DHT22;61999;51.514;14.614;2022-10-31T02:04:19;6.20;58.00
15879;DHT22;61999;51.514;14.614;2022-10-31T02:06:53;6.20;58.10
15879;DHT22;61999;51.514;14.614;2022-10-31T02:09:27;6.20;58.20
15879;DHT22;61999;51.514;14.614;2022-10-31T02:11:59;6.20;58.40
15879;DHT22;61999;51.514;14.614;2022-10-31T02:14:29;6.20;58.40
15879;DHT22;61999;51.514;14.614;2022-10-31T02:16:58;6.20;58.40
15879;DHT22;61999;51.514;14.614;2022-10-31T02:19:32;6.10;58.40
15879;DHT22;61999;51.514;14.614;2022-10-31T02:22:11;6.10;58.40
15879;DHT22;61999;51.514;14.614;2022-10-31T02:24:56;6.10;58.50
15879;DHT22;61999;51.514;14.614;2022-10-31T02:28:10;6.10;58.70
15879;DHT22;61999;51.514;14.614;2022-10-31T02:31:13;6.10;59.30
15879;DHT22;61999;51.514;14.614;2022-10-31T02:33:53;6.20;59.40
15879;DHT22;61999;51.514;14.614;2022-10-31T02:36:28;6.20;59.10
15879;DHT22;61999;51.514;14.614;2022-10-31T02:39:11;6.20;59.10
15879;DHT22;61999;51.514;14.614;2022-10-31T02:41:47;6.10;58.90
15879;DHT22;61999;51.514;14.614;2022-10-31T02:44:24;6.10;58.90
15879;DHT22;61999;51.514;14.614;2022-10-31T02:47:03;6.10;58.90
15879;DHT22;61999;51.514;14.614;2022-10-31T02:49:38;6.00;58.80
15879;DHT22;61999;51.514;14.614;2022-10-31T02:52:17;6.00;58.80
15879;DHT22;61999;51.514;14.614;2022-10-31T02:54:46;6.00;59.40
15879;DHT22;61999;51.514;14.614;2022-10-31T02:57:19;6.00;59.20
15879;DHT22;61999;51.514;14.614;2022-10-31T02:59:53;5.90;59.00
15879;DHT22;61999;51.514;14.614;2022-10-31T03:05:34;5.90;59.50
15879;DHT22;61999;51.514;14.614;2022-10-31T03:08:21;6.00;59.90
15879;DHT22;61999;51.514;14.614;2022-10-31T03:10:55;6.00;59.60
15879;DHT22;61999;51.514;14.614;2022-10-31T03:13:32;6.00;59.60
15879;DHT22;61999;51.514;14.614;2022-10-31T03:16:10;6.00;59.80
15879;DHT22;61999;51.514;14.614;2022-10-31T03:18:48;6.00;60.20
15879;DHT22;61999;51.514;14.614;2022-10-31T03:21:22;6.10;60.00
15879;DHT22;61999;51.514;14.614;2022-10-31T03:23:54;6.00;59.80
15879;DHT22;61999;51.514;14.614;2022-10-31T03:26:25;6.10;60.40
15879;DHT22;61999;51.514;14.614;2022-10-31T03:28:56;6.00;60.10
15879;DHT22;61999;51.514;14.614;2022-10-31T03:31:30;6.00;60.10
15879;DHT22;61999;51.514;14.614;2022-10-31T03:34:06;6.00;60.00
15879;DHT22;61999;51.514;14.614;2022-10-31T03:36:38;6.00;60.00
15879;DHT22;61999;51.514;14.614;2022-10-31T03:39:10;5.90;59.90
15879;DHT22;61999;51.514;14.614;2022-10-31T03:41:43;5.90;59.90
15879;DHT22;61999;51.514;14.614;2022-10-31T03:44:17;5.90;59.90
15879;DHT22;61999;51.514;14.614;2022-10-31T03:46:48;5.90;60.10
15879;DHT22;61999;51.514;14.614;2022-10-31T03:49:18;5.90;60.00
15879;DHT22;61999;51.514;14.614;2022-10-31T03:51:51;5.90;60.00
15879;DHT22;61999;51.514;14.614;2022-10-31T03:54:27;5.90;60.30
15879;DHT22;61999;51.514;14.614;2022-10-31T03:57:05;5.90;60.20
15879;DHT22;61999;51.514;14.614;2022-10-31T03:59:42;5.90;60.50
15879;DHT22;61999;51.514;14.614;2022-10-31T04:02:14;5.90;60.40
15879;DHT22;61999;51.514;14.614;2022-10-31T04:04:48;5.90;60.40
15879;DHT22;61999;51.514;14.614;2022-10-31T04:07:18;5.90;62.10
15879;DHT22;61999;51.514;14.614;2022-10-31T04:09:51;6.10;61.90
15879;DHT22;61999;51.514;14.614;2022-10-31T04:12:21;6.10;61.50
15879;DHT22;61999;51.514;14.614;2022-10-31T04:14:52;6.10;61.50
15879;DHT22;61999;51.514;14.614;2022-10-31T04:17:23;6.10;61.90
15879;DHT22;61999;51.514;14.614;2022-10-31T04:20:00;6.10;61.60
15879;DHT22;61999;51.514;14.614;2022-10-31T04:22:28;6.10;61.60
15879;DHT22;61999;51.514;14.614;2022-10-31T04:24:56;6.10;61.30
15879;DHT22;61999;51.514;14.614;2022-10-31T04:27:25;6.00;61.40
15879;DHT22;61999;51.514;14.614;2022-10-31T04:29:53;6.00;61.30
15879;DHT22;61999;51.514;14.614;2022-10-31T04:32:20;6.00;61.20
15879;DHT22;61999;51.514;14.614;2022-10-31T04:34:48;5.90;61.00
15879;DHT22;61999;51.514;14.614;2022-10-31T04:37:17;5.90;61.10
15879;DHT22;61999;51.514;14.614;2022-10-31T04:39:45;5.90;61.00
15879;DHT22;61999;51.514;14.614;2022-10-31T04:42:13;5.80;61.30
15879;DHT22;61999;51.514;14.614;2022-10-31T04:44:41;5.90;62.40
15879;DHT22;61999;51.514;14.614;2022-10-31T04:47:09;6.00;62.30
15879;DHT22;61999;51.514;14.614;2022-10-31T04:49:37;6.00;61.90
15879;DHT22;61999;51.514;14.614;2022-10-31T04:52:05;6.00;61.70
15879;DHT22;61999;51.514;14.614;2022-10-31T04:54:35;5.90;61.50
15879;DHT22;61999;51.514;14.614;2022-10-31T04:57:03;5.90;61.60
15879;DHT22;61999;51.514;14.614;2022-10-31T04:59:31;5.80;61.40
15879;DHT22;61999;51.514;14.614;2022-10-31T05:01:59;5.90;61.60
15879;DHT22;61999;51.514;14.614;2022-10-31T05:04:27;5.80;61.80
15879;DHT22;61999;51.514;14.614;2022-10-31T05:06:55;5.90;61.90
15879;DHT22;61999;51.514;14.614;2022-10-31T05:09:23;5.90;61.90
15879;DHT22;61999;51.514;14.614;2022-10-31T05:11:52;5.80;61.80
15879;DHT22;61999;51.514;14.614;2022-10-31T05:14:20;5.80;61.80
15879;DHT22;61999;51.514;14.614;2022-10-31T05:16:48;5.80;61.90
15879;DHT22;61999;51.514;14.614;2022-10-31T05:19:16;5.80;62.00
15879;DHT22;61999;51.514;14.614;2022-10-31T05:21:44;5.80;62.10
15879;DHT22;61999;51.514;14.614;2022-10-31T05:24:12;5.90;62.10
15879;DHT22;61999;51.514;14.614;2022-10-31T05:26:40;5.90;62.50
15879;DHT22;61999;51.514;14.614;2022-10-31T05:29:09;6.00;62.50
15879;DHT22;61999;51.514;14.614;2022-10-31T05:31:37;5.90;62.90
15879;DHT22;61999;51.514;14.614;2022-10-31T05:34:05;6.00;62.90
15879;DHT22;61999;51.514;14.614;2022-10-31T05:36:33;6.00;62.60
15879;DHT22;61999;51.514;14.614;2022-10-31T05:39:00;6.00;63.90
15879;DHT22;61999;51.514;14.614;2022-10-31T05:41:28;6.00;62.90
15879;DHT22;61999;51.514;14.614;2022-10-31T05:43:56;6.00;63.00
15879;DHT22;61999;51.514;14.614;2022-10-31T05:46:26;6.00;62.90
15879;DHT22;61999;51.514;14.614;2022-10-31T05:48:54;6.00;62.80
15879;DHT22;61999;51.514;14.614;2022-10-31T05:51:24;6.10;64.20
15879;DHT22;61999;51.514;14.614;2022-10-31T05:53:52;6.10;63.30
15879;DHT22;61999;51.514;14.614;2022-10-31T05:56:20;6.00;63.10
15879;DHT22;61999;51.514;14.614;2022-10-31T05:58:48;6.00;63.00
15879;DHT22;61999;51.514;14.614;2022-10-31T06:01:15;6.00;63.00
15879;DHT22;61999;51.514;14.614;2022-10-31T06:03:45;6.00;64.00
15879;DHT22;61999;51.514;14.614;2022-10-31T06:06:13;6.00;63.20
15879;DHT22;61999;51.514;14.614;2022-10-31T06:08:41;6.00;63.20
15879;DHT22;61999;51.514;14.614;2022-10-31T06:11:09;6.00;63.00
15879;DHT22;61999;51.514;14.614;2022-10-31T06:13:36;6.00;63.20
15879;DHT22;61999;51.514;14.614;2022-10-31T06:16:05;6.00;63.00
15879;DHT22;61999;51.514;14.614;2022-10-31T06:18:33;6.00;63.00
15879;DHT22;61999;51.514;14.614;2022-10-31T06:21:02;5.90;62.90
15879;DHT22;61999;51.514;14.614;2022-10-31T06:23:30;5.90;62.90
15879;DHT22;61999;51.514;14.614;2022-10-31T06:25:58;5.90;62.90
15879;DHT22;61999;51.514;14.614;2022-10-31T06:28:26;5.90;62.90
15879;DHT22;61999;51.514;14.614;2022-10-31T06:30:54;5.90;62.90
15879;DHT22;61999;51.514;14.614;2022-10-31T06:33:22;5.90;62.90
15879;DHT22;61999;51.514;14.614;2022-10-31T06:35:49;5.90;62.90
15879;DHT22;61999;51.514;14.614;2022-10-31T06:38:19;5.90;63.00
15879;DHT22;61999;51.514;14.614;2022-10-31T06:40:47;5.90;63.20
15879;DHT22;61999;51.514;14.614;2022-10-31T06:43:14;5.90;63.40
15879;DHT22;61999;51.514;14.614;2022-10-31T06:45:42;6.00;63.80
15879;DHT22;61999;51.514;14.614;2022-10-31T06:48:10;6.10;64.10
15879;DHT22;61999;51.514;14.614;2022-10-31T06:50:42;6.20;64.30
15879;DHT22;61999;51.514;14.614;2022-10-31T06:53:10;6.30;64.40
15879;DHT22;61999;51.514;14.614;2022-10-31T06:55:41;6.40;64.70
15879;DHT22;61999;51.514;14.614;2022-10-31T06:58:10;6.60;64.70
15879;DHT22;61999;51.514;14.614;2022-10-31T07:00:38;6.70;64.50
15879;DHT22;61999;51.514;14.614;2022-10-31T07:03:10;6.90;64.60
15879;DHT22;61999;51.514;14.614;2022-10-31T07:05:39;7.00;64.90
15879;DHT22;61999;51.514;14.614;2022-10-31T07:08:10;7.10;64.80
15879;DHT22;61999;51.514;14.614;2022-10-31T07:10:42;7.30;64.80
15879;DHT22;61999;51.514;14.614;2022-10-31T07:13:17;7.50;65.00
15879;DHT22;61999;51.514;14.614;2022-10-31T07:15:49;7.60;64.70
15879;DHT22;61999;51.514;14.614;2022-10-31T07:18:17;7.80;64.90
15879;DHT22;61999;51.514;14.614;2022-10-31T07:20:45;8.00;64.20
15879;DHT22;61999;51.514;14.614;2022-10-31T07:23:13;8.20;63.10
15879;DHT22;61999;51.514;14.614;2022-10-31T07:25:42;8.40;63.40
15879;DHT22;61999;51.514;14.614;2022-10-31T07:28:10;8.60;62.50
15879;DHT22;61999;51.514;14.614;2022-10-31T07:30:38;8.80;61.70
15879;DHT22;61999;51.514;14.614;2022-10-31T07:33:06;9.10;60.70
15879;DHT22;61999;51.514;14.614;2022-10-31T07:35:35;9.20;60.30
15879;DHT22;61999;51.514;14.614;2022-10-31T07:38:07;9.40;59.60
15879;DHT22;61999;51.514;14.614;2022-10-31T07:40:36;9.50;59.30
15879;DHT22;61999;51.514;14.614;2022-10-31T07:43:06;9.60;59.40
15879;DHT22;61999;51.514;14.614;2022-10-31T07:45:35;9.70;59.40
15879;DHT22;61999;51.514;14.614;2022-10-31T07:48:04;9.90;58.70
15879;DHT22;61999;51.514;14.614;2022-10-31T07:50:33;10.20;58.20
15879;DHT22;61999;51.514;14.614;2022-10-31T07:53:02;10.30;57.60
15879;DHT22;61999;51.514;14.614;2022-10-31T07:55:32;10.20;57.50
15879;DHT22;61999;51.514;14.614;2022-10-31T07:58:02;10.40;57.00
15879;DHT22;61999;51.514;14.614;2022-10-31T08:00:34;10.30;57.50
15879;DHT22;61999;51.514;14.614;2022-10-31T08:03:05;10.30;57.40
15879;DHT22;61999;51.514;14.614;2022-10-31T08:05:35;10.30;57.50
15879;DHT22;61999;51.514;14.614;2022-10-31T08:08:04;10.40;57.50
15879;DHT22;61999;51.514;14.614;2022-10-31T08:10:33;10.40;57.60
15879;DHT22;61999;51.514;14.614;2022-10-31T08:13:03;10.40;57.80
15879;DHT22;61999;51.514;14.614;2022-10-31T08:15:35;10.50;57.70
15879;DHT22;61999;51.514;14.614;2022-10-31T08:18:06;10.60;57.30
15879;DHT22;61999;51.514;14.614;2022-10-31T08:20:39;11.00;56.30
15879;DHT22;61999;51.514;14.614;2022-10-31T08:23:09;11.10;55.80
15879;DHT22;61999;51.514;14.614;2022-10-31T08:25:38;11.10;56.50
15879;DHT22;61999;51.514;14.614;2022-10-31T08:28:06;11.00;56.90
15879;DHT22;61999;51.514;14.614;2022-10-31T08:30:38;11.20;56.60
15879;DHT22;61999;51.514;14.614;2022-10-31T08:33:10;11.40;55.70
15879;DHT22;61999;51.514;14.614;2022-10-31T08:35:40;11.60;55.30
15879;DHT22;61999;51.514;14.614;2022-10-31T08:38:09;11.60;55.60
15879;DHT22;61999;51.514;14.614;2022-10-31T08:40:38;11.60;56.30
15879;DHT22;61999;51.514;14.614;2022-10-31T08:43:10;11.80;55.20
15879;DHT22;61999;51.514;14.614;2022-10-31T08:45:41;12.10;54.30
15879;DHT22;61999;51.514;14.614;2022-10-31T08:48:11;12.10;55.00
15879;DHT22;61999;51.514;14.614;2022-10-31T08:50:41;12.10;54.80
15879;DHT22;61999;51.514;14.614;2022-10-31T08:53:11;12.30;55.00
15879;DHT22;61999;51.514;14.614;2022-10-31T08:55:41;12.50;54.40
15879;DHT22;61999;51.514;14.614;2022-10-31T08:58:12;12.80;54.20
15879;DHT22;61999;51.514;14.614;2022-10-31T09:00:45;12.90;54.00
15879;DHT22;61999;51.514;14.614;2022-10-31T09:03:18;13.20;52.70
15879;DHT22;61999;51.514;14.614;2022-10-31T09:05:48;13.50;52.20
15879;DHT22;61999;51.514;14.614;2022-10-31T09:08:17;13.60;52.60
15879;DHT22;61999;51.514;14.614;2022-10-31T09:10:45;13.90;51.20
15879;DHT22;61999;51.514;14.614;2022-10-31T09:13:14;14.10;50.70
15879;DHT22;61999;51.514;14.614;2022-10-31T09:15:46;14.20;50.50
15879;DHT22;61999;51.514;14.614;2022-10-31T09:18:17;14.20;50.50
15879;DHT22;61999;51.514;14.614;2022-10-31T09:20:47;14.30;50.50
15879;DHT22;61999;51.514;14.614;2022-10-31T09:23:17;14.30;50.70
15879;DHT22;61999;51.514;14.614;2022-10-31T09:25:47;14.30;50.50
15879;DHT22;61999;51.514;14.614;2022-10-31T09:28:21;14.50;51.20
15879;DHT22;61999;51.514;14.614;2022-10-31T09:30:53;14.70;50.30
15879;DHT22;61999;51.514;14.614;2022-10-31T09:33:23;14.80;50.00
15879;DHT22;61999;51.514;14.614;2022-10-31T09:35:59;15.10;49.30
15879;DHT22;61999;51.514;14.614;2022-10-31T09:38:34;15.20;49.10
15879;DHT22;61999;51.514;14.614;2022-10-31T09:41:11;15.20;49.70
15879;DHT22;61999;51.514;14.614;2022-10-31T09:43:52;15.40;49.60
15879;DHT22;61999;51.514;14.614;2022-10-31T09:46:35;15.60;50.30
15879;DHT22;61999;51.514;14.614;2022-10-31T09:49:27;16.00;49.40
15879;DHT22;61999;51.514;14.614;2022-10-31T09:52:11;16.30;47.90
15879;DHT22;61999;51.514;14.614;2022-10-31T09:54:47;16.70;47.30
15879;DHT22;61999;51.514;14.614;2022-10-31T09:57:24;16.70;48.30
15879;DHT22;61999;51.514;14.614;2022-10-31T09:59:56;16.90;47.10
15879;DHT22;61999;51.514;14.614;2022-10-31T10:02:31;17.10;47.40
15879;DHT22;61999;51.514;14.614;2022-10-31T10:05:09;17.40;46.40
15879;DHT22;61999;51.514;14.614;2022-10-31T10:07:44;17.60;47.30
15879;DHT22;61999;51.514;14.614;2022-10-31T10:10:38;17.80;45.90
15879;DHT22;61999;51.514;14.614;2022-10-31T10:13:37;18.20;45.90
15879;DHT22;61999;51.514;14.614;2022-10-31T10:16:28;18.60;44.90
15879;DHT22;61999;51.514;14.614;2022-10-31T10:19:19;18.80;45.30
15879;DHT22;61999;51.514;14.614;2022-10-31T10:22:02;19.10;45.50
15879;DHT22;61999;51.514;14.614;2022-10-31T10:24:51;19.40;45.40
15879;DHT22;61999;51.514;14.614;2022-10-31T10:27:34;19.60;46.20
15879;DHT22;61999;51.514;14.614;2022-10-31T10:30:15;20.20;42.90
15879;DHT22;61999;51.514;14.614;2022-10-31T10:32:47;20.30;41.90
15879;DHT22;61999;51.514;14.614;2022-10-31T10:35:24;20.40;42.50
15879;DHT22;61999;51.514;14.614;2022-10-31T10:37:58;20.40;43.20
15879;DHT22;61999;51.514;14.614;2022-10-31T10:40:31;20.70;41.60
15879;DHT22;61999;51.514;14.614;2022-10-31T10:43:19;20.80;41.60
15879;DHT22;61999;51.514;14.614;2022-10-31T10:45:56;20.80;41.60
15879;DHT22;61999;51.514;14.614;2022-10-31T10:49:10;20.90;42.00
15879;DHT22;61999;51.514;14.614;2022-10-31T10:51:46;21.10;41.60
15879;DHT22;61999;51.514;14.614;2022-10-31T10:54:44;21.40;41.90
15879;DHT22;61999;51.514;14.614;2022-10-31T10:57:29;21.70;41.20
15879;DHT22;61999;51.514;14.614;2022-10-31T11:00:17;22.10;39.10
15879;DHT22;61999;51.514;14.614;2022-10-31T11:02:47;22.30;39.30
15879;DHT22;61999;51.514;14.614;2022-10-31T11:05:23;22.60;38.10
15879;DHT22;61999;51.514;14.614;2022-10-31T11:07:59;22.50;38.00
15879;DHT22;61999;51.514;14.614;2022-10-31T11:10:28;22.40;39.50
15879;DHT22;61999;51.514;14.614;2022-10-31T11:13:20;22.40;39.30
15879;DHT22;61999;51.514;14.614;2022-10-31T11:15:55;22.60;38.80
15879;DHT22;61999;51.514;14.614;2022-10-31T11:18:29;22.80;38.20
15879;DHT22;61999;51.514;14.614;2022-10-31T11:21:03;23.00;37.90
15879;DHT22;61999;51.514;14.614;2022-10-31T11:23:34;23.20;37.40
15879;DHT22;61999;51.514;14.614;2022-10-31T11:26:16;23.40;37.40
15879;DHT22;61999;51.514;14.614;2022-10-31T11:28:56;23.50;37.30
15879;DHT22;61999;51.514;14.614;2022-10-31T11:31:26;23.60;37.40
15879;DHT22;61999;51.514;14.614;2022-10-31T11:34:01;23.80;36.80
15879;DHT22;61999;51.514;14.614;2022-10-31T11:36:33;24.10;35.40
15879;DHT22;61999;51.514;14.614;2022-10-31T11:39:15;24.10;36.70
15879;DHT22;61999;51.514;14.614;2022-10-31T11:41:46;24.20;37.20
15879;DHT22;61999;51.514;14.614;2022-10-31T11:44:17;24.60;36.00
15879;DHT22;61999;51.514;14.614;2022-10-31T11:46:49;24.80;36.90
15879;DHT22;61999;51.514;14.614;2022-10-31T11:49:23;25.20;34.90
15879;DHT22;61999;51.514;14.614;2022-10-31T11:51:59;25.40;34.10
15879;DHT22;61999;51.514;14.614;2022-10-31T11:54:34;25.50;33.90
15879;DHT22;61999;51.514;14.614;2022-10-31T11:57:22;25.50;34.20
15879;DHT22;61999;51.514;14.614;2022-10-31T11:59:53;25.60;33.20
15879;DHT22;61999;51.514;14.614;2022-10-31T12:02:22;25.60;34.40
15879;DHT22;61999;51.514;14.614;2022-10-31T12:04:59;25.50;34.00
15879;DHT22;61999;51.514;14.614;2022-10-31T12:07:32;25.60;34.50
15879;DHT22;61999;51.514;14.614;2022-10-31T12:10:09;25.80;34.10
15879;DHT22;61999;51.514;14.614;2022-10-31T12:12:50;26.10;33.00
15879;DHT22;61999;51.514;14.614;2022-10-31T12:15:31;26.20;32.80
15879;DHT22;61999;51.514;14.614;2022-10-31T12:18:27;26.30;33.10
15879;DHT22;61999;51.514;14.614;2022-10-31T12:21:23;26.40;33.40
15879;DHT22;61999;51.514;14.614;2022-10-31T12:24:12;26.60;33.10
15879;DHT22;61999;51.514;14.614;2022-10-31T12:26:57;26.80;31.90
15879;DHT22;61999;51.514;14.614;2022-10-31T12:29:41;26.90;31.40
15879;DHT22;61999;51.514;14.614;2022-10-31T12:32:31;27.00;31.30
15879;DHT22;61999;51.514;14.614;2022-10-31T12:38:26;26.80;31.10
15879;DHT22;61999;51.514;14.614;2022-10-31T12:41:15;26.90;32.20
15879;DHT22;61999;51.514;14.614;2022-10-31T12:43:57;27.20;30.70
15879;DHT22;61999;51.514;14.614;2022-10-31T12:46:51;27.30;30.80
15879;DHT22;61999;51.514;14.614;2022-10-31T12:49:41;27.00;32.10
15879;DHT22;61999;51.514;14.614;2022-10-31T12:52:29;27.00;31.30
15879;DHT22;61999;51.514;14.614;2022-10-31T12:55:16;27.10;32.10
15879;DHT22;61999;51.514;14.614;2022-10-31T12:58:01;27.10;31.00
15879;DHT22;61999;51.514;14.614;2022-10-31T13:00:40;27.10;30.40
15879;DHT22;61999;51.514;14.614;2022-10-31T13:03:21;27.20;30.70
15879;DHT22;61999;51.514;14.614;2022-10-31T13:05:57;27.20;30.40
15879;DHT22;61999;51.514;14.614;2022-10-31T13:08:34;27.20;31.90
15879;DHT22;61999;51.514;14.614;2022-10-31T13:11:11;27.20;31.90
15879;DHT22;61999;51.514;14.614;2022-10-31T13:13:53;27.30;33.10
15879;DHT22;61999;51.514;14.614;2022-10-31T13:16:29;27.40;32.70
15879;DHT22;61999;51.514;14.614;2022-10-31T13:19:04;27.50;31.70
15879;DHT22;61999;51.514;14.614;2022-10-31T13:21:41;27.70;31.00
15879;DHT22;61999;51.514;14.614;2022-10-31T13:24:20;27.80;31.00
15879;DHT22;61999;51.514;14.614;2022-10-31T13:26:54;27.80;31.70
15879;DHT22;61999;51.514;14.614;2022-10-31T13:29:29;27.90;32.10
15879;DHT22;61999;51.514;14.614;2022-10-31T13:32:04;28.00;31.70
15879;DHT22;61999;51.514;14.614;2022-10-31T13:34:37;28.10;31.80
15879;DHT22;61999;51.514;14.614;2022-10-31T13:37:15;28.20;31.40
15879;DHT22;61999;51.514;14.614;2022-10-31T13:39:59;28.30;30.30
15879;DHT22;61999;51.514;14.614;2022-10-31T13:42:45;28.40;30.20
15879;DHT22;61999;51.514;14.614;2022-10-31T13:45:23;28.30;31.00
15879;DHT22;61999;51.514;14.614;2022-10-31T13:47:58;28.40;31.20
15879;DHT22;61999;51.514;14.614;2022-10-31T13:50:28;28.40;30.10
15879;DHT22;61999;51.514;14.614;2022-10-31T13:53:10;28.60;29.50
15879;DHT22;61999;51.514;14.614;2022-10-31T13:55:42;28.50;29.40
15879;DHT22;61999;51.514;14.614;2022-10-31T13:58:24;28.30;30.00
15879;DHT22;61999;51.514;14.614;2022-10-31T14:01:15;28.20;29.50
15879;DHT22;61999;51.514;14.614;2022-10-31T14:03:56;28.00;30.00
15879;DHT22;61999;51.514;14.614;2022-10-31T14:06:38;27.80;29.90
15879;DHT22;61999;51.514;14.614;2022-10-31T14:09:20;27.60;30.30
15879;DHT22;61999;51.514;14.614;2022-10-31T14:11:51;27.50;30.00
15879;DHT22;61999;51.514;14.614;2022-10-31T14:14:22;27.40;30.30
15879;DHT22;61999;51.514;14.614;2022-10-31T14:16:56;27.30;30.50
15879;DHT22;61999;51.514;14.614;2022-10-31T14:19:26;27.20;29.90
15879;DHT22;61999;51.514;14.614;2022-10-31T14:21:54;27.00;30.00
15879;DHT22;61999;51.514;14.614;2022-10-31T14:24:36;26.70;30.20
15879;DHT22;61999;51.514;14.614;2022-10-31T14:27:35;26.40;30.50
15879;DHT22;61999;51.514;14.614;2022-10-31T14:30:18;26.10;30.80
15879;DHT22;61999;51.514;14.614;2022-10-31T14:32:51;25.90;31.20
15879;DHT22;61999;51.514;14.614;2022-10-31T14:35:28;25.70;31.50
15879;DHT22;61999;51.514;14.614;2022-10-31T14:41:35;25.30;32.00
15879;DHT22;61999;51.514;14.614;2022-10-31T14:44:33;25.20;32.40
15879;DHT22;61999;51.514;14.614;2022-10-31T14:47:26;25.00;32.50
15879;DHT22;61999;51.514;14.614;2022-10-31T14:50:13;24.90;32.60
15879;DHT22;61999;51.514;14.614;2022-10-31T14:53:01;24.70;32.60
15879;DHT22;61999;51.514;14.614;2022-10-31T14:55:44;24.40;32.70
15879;DHT22;61999;51.514;14.614;2022-10-31T14:58:18;24.10;32.80
15879;DHT22;61999;51.514;14.614;2022-10-31T15:00:52;23.70;32.80
15879;DHT22;61999;51.514;14.614;2022-10-31T15:03:27;23.40;33.00
15879;DHT22;61999;51.514;14.614;2022-10-31T15:06:02;23.10;33.30
15879;DHT22;61999;51.514;14.614;2022-10-31T15:08:38;22.70;34.00
15879;DHT22;61999;51.514;14.614;2022-10-31T15:11:18;22.40;34.20
15879;DHT22;61999;51.514;14.614;2022-10-31T15:13:56;22.00;34.30
15879;DHT22;61999;51.514;14.614;2022-10-31T15:16:31;21.70;34.60
15879;DHT22;61999;51.514;14.614;2022-10-31T15:19:14;21.30;35.10
15879;DHT22;61999;51.514;14.614;2022-10-31T15:21:50;21.00;35.30
15879;DHT22;61999;51.514;14.614;2022-10-31T15:24:35;20.70;35.60
15879;DHT22;61999;51.514;14.614;2022-10-31T15:27:15;20.30;35.90
15879;DHT22;61999;51.514;14.614;2022-10-31T15:29:48;20.00;36.30
15879;DHT22;61999;51.514;14.614;2022-10-31T15:32:20;19.70;36.60
15879;DHT22;61999;51.514;14.614;2022-10-31T15:34:51;19.40;36.80
15879;DHT22;61999;51.514;14.614;2022-10-31T15:37:21;19.10;37.20
15879;DHT22;61999;51.514;14.614;2022-10-31T15:39:52;18.90;37.80
15879;DHT22;61999;51.514;14.614;2022-10-31T15:42:22;18.60;37.70
15879;DHT22;61999;51.514;14.614;2022-10-31T15:44:59;18.40;38.30
15879;DHT22;61999;51.514;14.614;2022-10-31T15:47:31;18.10;38.80
15879;DHT22;61999;51.514;14.614;2022-10-31T15:50:01;17.90;39.00
15879;DHT22;61999;51.514;14.614;2022-10-31T15:52:34;17.60;39.90
15879;DHT22;61999;51.514;14.614;2022-10-31T15:55:18;17.40;39.20
15879;DHT22;61999;51.514;14.614;2022-10-31T15:57:50;17.20;39.70
15879;DHT22;61999;51.514;14.614;2022-10-31T16:00:26;17.00;39.90
15879;DHT22;61999;51.514;14.614;2022-10-31T16:03:04;16.80;40.30
15879;DHT22;61999;51.514;14.614;2022-10-31T16:05:37;16.50;40.70
15879;DHT22;61999;51.514;14.614;2022-10-31T16:08:22;16.40;40.90
15879;DHT22;61999;51.514;14.614;2022-10-31T16:10:53;16.10;41.50
15879;DHT22;61999;51.514;14.614;2022-10-31T16:13:27;16.00;41.90
15879;DHT22;61999;51.514;14.614;2022-10-31T16:16:00;15.80;41.60